Time;durP1;ratioP1;P1;durP2;ratioP2;P2;SDS_P1;SDS_P2;PMS_P1;PMS_P2;Temp;Humidity;BMP_temperature;BMP_pressure;BME280_temperature;BME280_humidity;BME280_pressure;Samples;Min_cycle;Max_cycle;Signal;HPM_P1;HPM_P2
2022/08/26 00:02:03;;;;;;;29.33;17.93;;;22.30;99.90;;;;;;5094992;28;20055;-68
2022/08/26 00:04:30;;;;;;;27.33;18.57;;;22.30;99.90;;;;;;5093972;28;20090;-68
2022/08/26 00:06:56;;;;;;;27.67;17.80;;;22.30;99.90;;;;;;5095149;28;20119;-70
2022/08/26 00:09:23;;;;;;;27.00;16.77;;;22.30;99.90;;;;;;5094041;28;20491;-70
2022/08/26 00:11:49;;;;;;;26.00;16.50;;;22.30;99.90;;;;;;5093475;28;20480;-70
2022/08/26 00:14:15;;;;;;;24.13;15.63;;;22.30;99.90;;;;;;5094628;28;20051;-70
2022/08/26 00:16:42;;;;;;;26.77;16.30;;;22.30;99.90;;;;;;5094421;28;20082;-70
2022/08/26 00:19:08;;;;;;;25.60;16.90;;;22.20;99.90;;;;;;5093998;28;20063;-70
2022/08/26 00:21:34;;;;;;;22.83;16.00;;;22.20;99.90;;;;;;5076482;28;20122;-71
2022/08/26 00:24:00;;;;;;;22.17;14.13;;;22.20;99.90;;;;;;5077049;28;20135;-70
2022/08/26 00:26:25;;;;;;;22.97;14.10;;;22.20;99.90;;;;;;5093846;28;20123;-70
2022/08/26 00:28:51;;;;;;;24.07;13.77;;;22.20;99.90;;;;;;5094422;28;20047;-71
2022/08/26 00:31:17;;;;;;;22.80;12.53;;;22.20;99.90;;;;;;5093501;28;20077;-71
2022/08/26 00:33:43;;;;;;;24.33;14.70;;;22.20;99.90;;;;;;5094318;28;20101;-70
2022/08/26 00:36:08;;;;;;;22.77;14.17;;;22.20;99.90;;;;;;5094595;28;20055;-70
2022/08/26 00:38:35;;;;;;;17.23;11.73;;;22.20;99.90;;;;;;5094236;28;20055;-71
2022/08/26 00:41:02;;;;;;;19.37;12.87;;;22.20;99.90;;;;;;5094696;28;20055;-70
2022/08/26 00:43:32;;;;;;;20.80;13.23;;;22.20;99.90;;;;;;5094345;28;20044;-70
2022/08/26 00:46:03;;;;;;;23.13;12.17;;;22.20;99.90;;;;;;5093973;28;20094;-70
2022/08/26 00:48:31;;;;;;;21.10;11.20;;;22.20;99.90;;;;;;5094423;28;20048;-70
2022/08/26 00:51:08;;;;;;;17.73;9.80;;;22.10;99.90;;;;;;5094076;28;20044;-71
2022/08/26 00:53:40;;;;;;;20.43;10.23;;;22.10;99.90;;;;;;5094157;28;20044;-70
2022/08/26 00:56:21;;;;;;;21.10;10.43;;;22.00;99.90;;;;;;5094259;28;20047;-70
2022/08/26 00:58:48;;;;;;;17.80;9.30;;;22.10;99.90;;;;;;5094016;28;20055;-71
2022/08/26 01:01:14;;;;;;;22.27;9.37;;;22.00;99.90;;;;;;5094091;28;20044;-71
2022/08/26 01:03:42;;;;;;;19.77;8.77;;;22.00;99.90;;;;;;5092565;28;20070;-71
2022/08/26 01:06:08;;;;;;;16.70;8.43;;;22.00;99.90;;;;;;5094200;28;20092;-71
2022/08/26 01:08:34;;;;;;;14.50;8.10;;;22.00;99.90;;;;;;5093915;28;20051;-70
2022/08/26 01:11:01;;;;;;;14.90;9.20;;;22.00;99.90;;;;;;5093471;28;20040;-70
2022/08/26 01:13:28;;;;;;;16.73;8.00;;;22.00;99.90;;;;;;5093657;28;20193;-70
2022/08/26 01:15:58;;;;;;;18.17;8.37;;;22.00;99.90;;;;;;5093562;28;20060;-70
2022/08/26 01:18:25;;;;;;;16.70;7.83;;;22.10;99.90;;;;;;5093964;28;20416;-70
2022/08/26 01:21:10;;;;;;;19.03;9.13;;;22.10;99.90;;;;;;5093332;28;20052;-70
2022/08/26 01:23:43;;;;;;;18.52;8.70;;;22.10;99.90;;;;;;5093489;28;20044;-68
2022/08/26 01:26:23;;;;;;;24.97;8.33;;;22.10;99.90;;;;;;5093782;28;20048;-68
2022/08/26 01:28:52;;;;;;;17.60;8.03;;;22.10;99.90;;;;;;5093349;28;20058;-68
2022/08/26 01:31:23;;;;;;;15.63;8.27;;;22.10;99.90;;;;;;5093414;28;20109;-68
2022/08/26 01:34:16;;;;;;;19.47;9.17;;;22.10;99.90;;;;;;5092974;28;20071;-68
2022/08/26 01:36:43;;;;;;;16.60;7.70;;;22.00;99.90;;;;;;5093383;28;20044;-69
2022/08/26 01:39:09;;;;;;;18.37;8.10;;;21.90;99.90;;;;;;5093612;28;20043;-69
2022/08/26 01:41:36;;;;;;;16.40;8.37;;;21.90;99.90;;;;;;5093242;28;20472;-69
2022/08/26 01:44:05;;;;;;;16.17;8.47;;;21.90;99.90;;;;;;5092513;28;20044;-69
2022/08/26 01:46:32;;;;;;;17.57;7.67;;;21.90;99.90;;;;;;5093028;28;20048;-69
2022/08/26 01:49:01;;;;;;;18.63;8.07;;;21.80;99.90;;;;;;5093036;28;20118;-69
2022/08/26 01:51:27;;;;;;;15.23;7.03;;;21.80;99.90;;;;;;5093140;28;20115;-69
2022/08/26 01:53:54;;;;;;;14.30;7.23;;;21.80;99.90;;;;;;5092697;28;20127;-69
2022/08/26 01:56:22;;;;;;;15.30;6.37;;;21.90;99.90;;;;;;5092863;28;20502;-69
2022/08/26 01:58:54;;;;;;;14.40;5.80;;;21.90;99.90;;;;;;5091511;28;20044;-69
2022/08/26 02:01:21;;;;;;;13.43;5.80;;;21.80;99.90;;;;;;5093202;28;20044;-69
2022/08/26 02:04:16;;;;;;;15.30;5.93;;;21.80;99.90;;;;;;5092809;28;20040;-69
2022/08/26 02:06:43;;;;;;;17.58;6.68;;;21.70;99.90;;;;;;5093083;28;20135;-69
2022/08/26 02:09:10;;;;;;;13.97;5.43;;;21.60;99.90;;;;;;5092859;28;20052;-69
2022/08/26 02:11:37;;;;;;;15.47;6.53;;;21.60;99.90;;;;;;5093020;28;20048;-69
2022/08/26 02:14:15;;;;;;;20.47;5.87;;;21.50;99.90;;;;;;5092313;28;20262;-69
2022/08/26 02:16:44;;;;;;;15.67;5.77;;;21.50;99.90;;;;;;5092855;28;20095;-69
2022/08/26 02:19:16;;;;;;;11.83;5.90;;;21.50;99.90;;;;;;5092765;28;20059;-69
2022/08/26 02:21:43;;;;;;;13.63;4.93;;;21.40;99.90;;;;;;5092672;28;20055;-69
2022/08/26 02:24:16;;;;;;;17.03;5.63;;;21.40;99.90;;;;;;5092901;28;20040;-69
2022/08/26 02:26:44;;;;;;;10.87;5.17;;;21.40;99.90;;;;;;5092942;28;20040;-69
2022/08/26 02:29:27;;;;;;;11.30;4.60;;;21.50;99.90;;;;;;5091962;28;20503;-69
2022/08/26 02:31:56;;;;;;;11.50;4.60;;;21.50;99.90;;;;;;5091352;28;20321;-69
2022/08/26 02:34:30;;;;;;;14.40;4.10;;;21.50;99.90;;;;;;5091319;28;20051;-69
2022/08/26 02:37:01;;;;;;;13.02;4.63;;;21.50;99.90;;;;;;5091346;28;20097;-70
2022/08/26 02:39:28;;;;;;;10.73;4.50;;;21.50;99.90;;;;;;5092916;28;20044;-70
2022/08/26 02:41:54;;;;;;;12.80;3.90;;;21.50;99.90;;;;;;5092341;28;20050;-70
2022/08/26 02:44:20;;;;;;;10.97;5.20;;;21.50;99.90;;;;;;5092550;28;20040;-69
2022/08/26 02:46:46;;;;;;;12.50;5.23;;;21.50;99.90;;;;;;5091526;28;20044;-70
2022/08/26 02:49:12;;;;;;;12.53;4.20;;;21.60;99.90;;;;;;5092361;28;20105;-70
2022/08/26 02:51:37;;;;;;;13.87;4.33;;;21.60;99.90;;;;;;5092812;28;20044;-69
2022/08/26 02:54:03;;;;;;;12.67;3.97;;;21.60;99.90;;;;;;5074355;28;20047;-70
2022/08/26 02:56:31;;;;;;;10.97;4.67;;;21.60;99.90;;;;;;5095674;28;20119;-69
2022/08/26 02:58:56;;;;;;;13.93;4.33;;;21.60;99.90;;;;;;5078168;28;20553;-70
2022/08/26 03:01:26;;;;;;;12.17;3.60;;;21.50;99.90;;;;;;5096304;28;20044;-70
2022/08/26 03:03:52;;;;;;;15.57;4.40;;;21.60;99.90;;;;;;5096163;28;20040;-70
2022/08/26 03:06:18;;;;;;;13.30;4.93;;;21.60;99.90;;;;;;5096586;28;20075;-70
2022/08/26 03:08:44;;;;;;;12.03;3.60;;;21.50;99.90;;;;;;5096210;28;20476;-70
2022/08/26 03:11:11;;;;;;;10.37;4.40;;;21.50;99.90;;;;;;5095926;28;20052;-70
2022/08/26 03:13:37;;;;;;;12.63;4.20;;;21.50;99.90;;;;;;5096207;28;20055;-70
2022/08/26 03:16:03;;;;;;;13.00;3.63;;;21.50;99.90;;;;;;5095720;28;20051;-70
2022/08/26 03:18:29;;;;;;;15.73;3.90;;;21.50;99.90;;;;;;5094963;28;20044;-70
2022/08/26 03:20:55;;;;;;;12.50;3.50;;;21.50;99.90;;;;;;5095740;28;20054;-70
2022/08/26 03:23:21;;;;;;;14.17;3.57;;;21.40;99.90;;;;;;5096022;28;20040;-70
2022/08/26 03:25:52;;;;;;;11.07;3.57;;;21.40;99.90;;;;;;5095876;28;20044;-70
2022/08/26 03:28:18;;;;;;;12.80;3.10;;;21.50;99.90;;;;;;5095744;28;20484;-70
2022/08/26 03:30:45;;;;;;;12.70;3.27;;;21.40;99.90;;;;;;5094446;28;20507;-70
2022/08/26 03:33:11;;;;;;;12.77;3.00;;;21.40;99.90;;;;;;5094457;28;20073;-70
2022/08/26 03:35:40;;;;;;;15.70;4.47;;;21.30;99.90;;;;;;5095655;28;20058;-70
2022/08/26 03:38:07;;;;;;;13.50;3.60;;;21.30;99.90;;;;;;5095279;28;20508;-70
2022/08/26 03:40:37;;;;;;;15.73;3.00;;;21.30;99.90;;;;;;5095514;28;20122;-70
2022/08/26 03:43:04;;;;;;;13.33;3.27;;;21.30;99.90;;;;;;5095380;28;20050;-70
2022/08/26 03:45:31;;;;;;;13.40;2.63;;;21.30;99.90;;;;;;5095606;28;20048;-70
2022/08/26 03:47:57;;;;;;;12.03;3.37;;;21.30;99.90;;;;;;5095258;28;20477;-70
2022/08/26 03:50:23;;;;;;;13.07;3.43;;;21.30;99.90;;;;;;5094496;28;20055;-70
2022/08/26 03:52:50;;;;;;;11.97;3.40;;;21.20;99.90;;;;;;5095365;28;20047;-70
2022/08/26 03:55:17;;;;;;;12.50;2.80;;;21.30;99.90;;;;;;5094971;28;20048;-70
2022/08/26 03:57:43;;;;;;;13.10;3.40;;;21.30;99.90;;;;;;5093909;28;20040;-70
2022/08/26 04:00:14;;;;;;;15.83;4.17;;;21.30;99.90;;;;;;5095061;28;20602;-70
2022/08/26 04:02:42;;;;;;;11.57;3.40;;;21.20;99.90;;;;;;5095459;28;20047;-70
2022/08/26 04:05:09;;;;;;;16.47;3.80;;;21.20;99.90;;;;;;5094877;28;20052;-70
2022/08/26 04:07:35;;;;;;;13.97;3.53;;;21.20;99.90;;;;;;5094885;28;20052;-70
2022/08/26 04:10:02;;;;;;;18.40;3.70;;;21.20;99.90;;;;;;5093858;28;20048;-70
2022/08/26 04:12:28;;;;;;;16.17;3.70;;;21.20;99.90;;;;;;5094565;28;20043;-69
2022/08/26 04:14:54;;;;;;;20.13;3.87;;;21.10;99.90;;;;;;5095093;28;20502;-70
2022/08/26 04:17:20;;;;;;;13.93;3.70;;;21.10;99.90;;;;;;5094765;28;20052;-70
2022/08/26 04:19:45;;;;;;;15.00;4.10;;;21.10;99.90;;;;;;5095146;28;20047;-70
2022/08/26 04:22:12;;;;;;;15.23;3.93;;;21.20;99.90;;;;;;5094525;28;20502;-70
2022/08/26 04:24:38;;;;;;;13.40;4.13;;;21.10;99.90;;;;;;5094806;28;20089;-70
2022/08/26 04:27:05;;;;;;;13.33;3.00;;;21.10;99.90;;;;;;5094889;28;20127;-70
2022/08/26 04:29:31;;;;;;;13.93;3.83;;;21.10;99.90;;;;;;5094508;28;20484;-70
2022/08/26 04:31:57;;;;;;;17.77;4.10;;;21.00;99.90;;;;;;5094803;28;20051;-70
2022/08/26 04:34:25;;;;;;;13.27;3.23;;;21.00;99.90;;;;;;5094282;28;20044;-70
2022/08/26 04:36:51;;;;;;;13.03;4.37;;;21.00;99.90;;;;;;5093600;28;20388;-70
2022/08/26 04:39:19;;;;;;;13.37;3.33;;;20.90;99.90;;;;;;5094148;28;20055;-70
2022/08/26 04:41:45;;;;;;;17.13;3.20;;;20.90;99.90;;;;;;5094569;28;20059;-70
2022/08/26 04:44:12;;;;;;;14.23;3.73;;;20.80;99.90;;;;;;5076111;28;20040;-70
2022/08/26 04:46:38;;;;;;;14.80;3.80;;;20.90;99.90;;;;;;5076846;28;20091;-70
2022/08/26 04:49:07;;;;;;;17.20;3.40;;;20.90;99.90;;;;;;5094041;28;20404;-70
2022/08/26 04:51:34;;;;;;;16.43;3.90;;;20.90;99.90;;;;;;5094152;28;20074;-70
2022/08/26 04:54:00;;;;;;;13.07;3.43;;;20.90;99.90;;;;;;5094008;28;20127;-70
2022/08/26 04:56:29;;;;;;;13.60;3.60;;;21.00;99.90;;;;;;5094233;28;20104;-70
2022/08/26 04:58:55;;;;;;;14.30;3.17;;;20.90;99.90;;;;;;5094210;28;20098;-70
2022/08/26 05:01:21;;;;;;;13.67;3.43;;;20.90;99.90;;;;;;5093880;28;20500;-70
2022/08/26 05:03:48;;;;;;;18.23;3.73;;;20.90;99.90;;;;;;5094221;28;20044;-70
2022/08/26 05:06:15;;;;;;;17.47;3.90;;;20.90;99.90;;;;;;5092502;28;20040;-70
2022/08/26 05:08:41;;;;;;;15.30;3.90;;;20.90;99.90;;;;;;5093919;28;20051;-70
2022/08/26 05:11:07;;;;;;;14.63;3.33;;;20.90;99.90;;;;;;5093837;28;20043;-70
2022/08/26 05:13:34;;;;;;;15.00;3.27;;;20.90;99.90;;;;;;5093605;28;20502;-70
2022/08/26 05:16:05;;;;;;;13.23;3.20;;;21.00;99.90;;;;;;5093791;28;20044;-70
2022/08/26 05:18:32;;;;;;;11.87;2.87;;;21.00;99.90;;;;;;5092939;28;20054;-70
2022/08/26 05:20:59;;;;;;;11.67;3.20;;;21.00;99.90;;;;;;5093736;28;20142;-70
2022/08/26 05:23:25;;;;;;;13.90;3.00;;;21.00;99.90;;;;;;5093241;28;20044;-70
2022/08/26 05:25:53;;;;;;;12.47;3.03;;;21.10;99.90;;;;;;5092722;28;20585;-70
2022/08/26 05:28:20;;;;;;;13.77;3.10;;;21.10;99.90;;;;;;5092485;28;20101;-70
2022/08/26 05:30:47;;;;;;;18.43;3.23;;;21.10;99.90;;;;;;5093534;28;20052;-70
2022/08/26 05:33:14;;;;;;;15.60;3.03;;;21.10;99.90;;;;;;5093114;28;20046;-70
2022/08/26 05:35:41;;;;;;;11.27;2.67;;;21.10;99.90;;;;;;5093430;28;20040;-70
2022/08/26 05:38:09;;;;;;;13.87;3.37;;;21.10;99.90;;;;;;5093289;28;20044;-70
2022/08/26 05:40:43;;;;;;;13.97;3.33;;;21.00;99.90;;;;;;5093414;28;20044;-70
2022/08/26 05:43:10;;;;;;;13.97;3.10;;;21.00;99.90;;;;;;5093138;28;20385;-70
2022/08/26 05:45:44;;;;;;;11.10;3.20;;;20.90;99.90;;;;;;5093243;28;20044;-70
2022/08/26 05:48:11;;;;;;;16.87;3.03;;;20.90;99.90;;;;;;5091642;28;20048;-70
2022/08/26 05:50:48;;;;;;;9.23;2.60;;;20.80;99.90;;;;;;5093319;28;20040;-70
2022/08/26 05:53:16;;;;;;;14.67;3.67;;;20.90;99.90;;;;;;5093094;28;20040;-70
2022/08/26 05:55:45;;;;;;;15.10;3.40;;;20.90;99.90;;;;;;5093368;28;20046;-70
2022/08/26 05:58:11;;;;;;;13.13;3.20;;;20.90;99.90;;;;;;5092806;28;20059;-70
2022/08/26 06:00:38;;;;;;;11.30;2.50;;;21.00;99.90;;;;;;5093074;28;20075;-70
2022/08/26 06:03:04;;;;;;;11.63;3.07;;;20.90;99.90;;;;;;5093060;28;20055;-70
2022/08/26 06:05:30;;;;;;;11.87;2.80;;;20.90;99.90;;;;;;5092930;28;20484;-70
2022/08/26 06:08:12;;;;;;;17.33;3.10;;;21.00;99.90;;;;;;5093024;28;20476;-70
2022/08/26 06:10:52;;;;;;;9.60;2.40;;;21.00;99.90;;;;;;5093202;28;20130;-70
2022/08/26 06:13:22;;;;;;;9.70;3.30;;;21.00;99.90;;;;;;5092438;28;20139;-70
2022/08/26 06:15:49;;;;;;;12.83;3.50;;;20.90;99.90;;;;;;5092817;28;20510;-70
2022/08/26 06:18:18;;;;;;;15.83;2.73;;;21.00;99.90;;;;;;5092757;28;20484;-71
2022/08/26 06:20:45;;;;;;;9.30;2.50;;;21.00;99.90;;;;;;5092921;28;20040;-70
2022/08/26 06:25:58;;;;;;;14.20;2.63;;;21.00;99.90;;;;;;5092706;28;20056;-69
2022/08/26 06:28:24;;;;;;;10.27;2.70;;;21.00;99.90;;;;;;5092723;28;20040;-70
2022/08/26 06:30:51;;;;;;;12.90;3.13;;;21.00;99.90;;;;;;5096834;28;20052;-71
2022/08/26 06:33:17;;;;;;;15.87;3.83;;;21.00;99.90;;;;;;5096692;28;20093;-71
2022/08/26 06:35:45;;;;;;;10.50;2.53;;;21.00;99.90;;;;;;5096811;28;20052;-70
2022/08/26 06:38:12;;;;;;;15.90;3.27;;;21.10;99.90;;;;;;5096749;28;20128;-71
2022/08/26 06:40:53;;;;;;;15.27;3.20;;;21.10;99.90;;;;;;5096096;28;20464;-71
2022/08/26 06:43:22;;;;;;;11.87;2.83;;;21.20;99.90;;;;;;5096600;28;20041;-71
2022/08/26 06:45:49;;;;;;;12.43;2.83;;;21.10;99.90;;;;;;5096723;28;20113;-70
2022/08/26 06:48:18;;;;;;;19.23;3.17;;;21.10;99.90;;;;;;5096439;28;20068;-71
2022/08/26 06:50:44;;;;;;;10.03;2.90;;;21.10;99.90;;;;;;5096507;28;20087;-71
2022/08/26 06:53:12;;;;;;;16.00;3.77;;;21.20;99.90;;;;;;5096620;28;20128;-70
2022/08/26 06:55:45;;;;;;;10.27;2.60;;;21.20;99.90;;;;;;5095185;28;20047;-71
2022/08/26 06:58:13;;;;;;;10.97;2.97;;;21.20;99.90;;;;;;5096088;28;20066;-71
2022/08/26 07:00:39;;;;;;;11.50;2.40;;;21.30;99.90;;;;;;5096127;28;20484;-70
2022/08/26 07:03:06;;;;;;;12.37;3.40;;;21.30;99.90;;;;;;5096398;28;20040;-71
2022/08/26 07:05:33;;;;;;;14.60;2.60;;;21.40;99.90;;;;;;5095040;28;20048;-71
2022/08/26 07:07:58;;;;;;;13.20;2.83;;;21.40;99.90;;;;;;5096482;28;20121;-70
2022/08/26 07:10:25;;;;;;;11.93;2.40;;;21.50;99.90;;;;;;5095003;28;20044;-70
2022/08/26 07:12:52;;;;;;;10.53;2.10;;;21.50;99.90;;;;;;5094723;28;20044;-70
2022/08/26 07:15:18;;;;;;;10.53;2.40;;;21.40;99.90;;;;;;5095130;28;20469;-70
2022/08/26 07:17:44;;;;;;;10.30;2.37;;;21.40;99.90;;;;;;5096013;28;20047;-71
2022/08/26 07:20:10;;;;;;;7.63;2.40;;;21.40;99.90;;;;;;5096219;28;20052;-71
2022/08/26 07:22:37;;;;;;;10.60;2.30;;;21.50;99.90;;;;;;5094697;28;20069;-71
2022/08/26 07:25:08;;;;;;;9.03;2.70;;;21.50;99.90;;;;;;5096245;28;20079;-71
2022/08/26 07:27:35;;;;;;;9.87;2.47;;;21.50;99.90;;;;;;5095669;28;20044;-70
2022/08/26 07:30:03;;;;;;;13.63;3.10;;;21.60;99.90;;;;;;5095780;28;20047;-70
2022/08/26 07:32:29;;;;;;;12.73;2.60;;;21.60;99.90;;;;;;5094446;28;20079;-71
2022/08/26 07:34:55;;;;;;;8.93;1.90;;;21.50;99.90;;;;;;5096013;28;20141;-70
2022/08/26 07:37:21;;;;;;;10.87;2.50;;;21.60;99.90;;;;;;5094634;28;20047;-70
2022/08/26 07:39:47;;;;;;;11.43;2.20;;;21.60;99.90;;;;;;5095994;28;20076;-69
2022/08/26 07:42:14;;;;;;;10.27;2.40;;;21.70;99.90;;;;;;5094869;28;20101;-70
2022/08/26 07:44:41;;;;;;;7.60;1.97;;;21.70;99.90;;;;;;5094291;28;21008;-70
2022/08/26 07:47:08;;;;;;;10.43;2.50;;;21.80;99.90;;;;;;5095435;28;20412;-70
2022/08/26 07:49:33;;;;;;;9.53;2.77;;;21.80;99.90;;;;;;5094327;28;20048;-69
2022/08/26 07:51:59;;;;;;;8.00;1.90;;;21.70;99.90;;;;;;5095304;28;20058;-69
2022/08/26 07:54:25;;;;;;;9.67;2.43;;;21.70;99.90;;;;;;5095137;28;20097;-69
2022/08/26 07:56:51;;;;;;;19.10;3.23;;;21.70;99.90;;;;;;5095419;28;20044;-69
2022/08/26 07:59:18;;;;;;;9.73;2.03;;;21.60;99.90;;;;;;5094388;28;20077;-69
2022/08/26 08:01:44;;;;;;;10.80;2.33;;;21.60;99.90;;;;;;5095013;28;20048;-69
2022/08/26 08:04:12;;;;;;;12.70;3.10;;;21.60;99.90;;;;;;5095570;28;20388;-69
2022/08/26 08:06:38;;;;;;;10.63;2.27;;;21.50;99.90;;;;;;5095041;28;20131;-69
2022/08/26 08:09:04;;;;;;;11.17;2.27;;;21.50;99.90;;;;;;5095360;28;20121;-70
2022/08/26 08:11:31;;;;;;;11.17;2.57;;;21.50;99.90;;;;;;5094784;28;20044;-70
2022/08/26 08:13:59;;;;;;;10.90;2.47;;;21.50;99.90;;;;;;5095150;28;20068;-70
2022/08/26 08:16:28;;;;;;;12.23;3.47;;;21.50;99.90;;;;;;5094595;28;20126;-70
2022/08/26 08:18:55;;;;;;;8.07;2.30;;;21.60;99.90;;;;;;5095034;28;20052;-70
2022/08/26 08:21:23;;;;;;;9.67;2.10;;;21.70;99.90;;;;;;5094945;28;20127;-69
2022/08/26 08:23:51;;;;;;;13.33;2.93;;;21.80;99.90;;;;;;5095208;28;20040;-69
2022/08/26 08:26:17;;;;;;;9.30;2.23;;;21.90;99.90;;;;;;5094938;28;20082;-69
2022/08/26 08:28:43;;;;;;;11.90;2.30;;;21.90;99.90;;;;;;5093142;28;20044;-69
2022/08/26 08:31:10;;;;;;;13.07;2.23;;;21.90;99.90;;;;;;5094878;28;20047;-69
2022/08/26 08:33:35;;;;;;;11.67;2.17;;;22.00;99.90;;;;;;5094344;28;20081;-70
2022/08/26 08:36:04;;;;;;;13.50;1.90;;;22.10;99.90;;;;;;5094407;28;20083;-70
2022/08/26 08:38:30;;;;;;;11.07;1.97;;;22.30;99.90;;;;;;5094300;28;20091;-69
2022/08/26 08:40:55;;;;;;;7.97;2.00;;;22.50;99.90;;;;;;5094723;28;20094;-70
2022/08/26 08:43:29;;;;;;;10.07;2.20;;;22.50;99.90;;;;;;5094329;28;20522;-70
2022/08/26 08:46:02;;;;;;;8.98;2.17;;;22.70;99.90;;;;;;5094704;28;20051;-70
2022/08/26 08:48:32;;;;;;;11.33;2.20;;;22.70;99.90;;;;;;5094100;28;20479;-70
2022/08/26 08:51:16;;;;;;;11.80;2.50;;;22.60;99.90;;;;;;5093283;28;20189;-69
2022/08/26 08:53:44;;;;;;;11.68;2.20;;;22.50;99.90;;;;;;5092922;28;20044;-69
2022/08/26 08:56:25;;;;;;;13.33;2.67;;;22.40;99.90;;;;;;5092963;28;20508;-68
2022/08/26 08:58:59;;;;;;;13.90;2.57;;;22.30;99.90;;;;;;5091767;28;20036;-69
2022/08/26 09:01:27;;;;;;;10.88;2.38;;;22.20;99.90;;;;;;5073688;28;20062;-69
2022/08/26 09:04:20;;;;;;;11.57;2.40;;;22.20;99.90;;;;;;5073519;28;20095;-69
2022/08/26 09:06:48;;;;;;;11.07;2.10;;;22.10;99.90;;;;;;5073615;28;20048;-68
2022/08/26 09:09:24;;;;;;;8.90;2.27;;;22.00;99.90;;;;;;5073739;28;20063;-68
2022/08/26 09:11:51;;;;;;;10.13;2.07;;;22.00;99.90;;;;;;5073421;28;20052;-70
2022/08/26 09:14:17;;;;;;;10.80;2.10;;;22.00;99.90;;;;;;5073312;28;20139;-73
2022/08/26 09:17:01;;;;;;;13.90;2.33;;;22.00;99.90;;;;;;5088389;28;20871;-72
2022/08/26 09:19:46;;;;;;;11.30;3.07;;;22.00;99.90;;;;;;5084549;28;20078;-72
2022/08/26 09:22:30;;;;;;;12.37;2.30;;;22.00;99.90;;;;;;5081535;28;20077;-73
2022/08/26 09:24:56;;;;;;;14.50;2.05;;;22.00;99.90;;;;;;5084434;28;20063;-71
2022/08/26 09:27:41;;;;;;;9.47;2.03;;;22.00;99.90;;;;;;5080476;28;20043;-71
2022/08/26 09:30:09;;;;;;;12.32;1.92;;;22.10;99.90;;;;;;5064770;28;20048;-71
2022/08/26 09:32:35;;;;;;;6.73;2.37;;;22.00;99.90;;;;;;5065747;28;20045;-72
2022/08/26 09:35:08;;;;;;;7.13;1.83;;;21.90;99.90;;;;;;5086789;28;20040;-73
2022/08/26 09:37:36;;;;;;;9.90;1.80;;;21.80;99.90;;;;;;5082826;28;20063;-72
2022/08/26 09:40:21;;;;;;;9.37;1.97;;;21.80;99.90;;;;;;5086655;28;20380;-72
2022/08/26 09:43:04;;;;;;;7.18;2.25;;;21.80;99.90;;;;;;5085399;28;20122;-73
2022/08/26 09:45:30;;;;;;;9.67;2.43;;;21.60;99.90;;;;;;5085638;28;20040;-69
2022/08/26 09:47:57;;;;;;;10.73;2.13;;;21.50;99.90;;;;;;5089273;28;20101;-67
2022/08/26 09:50:25;;;;;;;11.00;2.97;;;21.50;99.90;;;;;;5092782;28;20044;-70
2022/08/26 09:53:13;;;;;;;9.93;2.83;;;21.40;99.90;;;;;;5091101;28;20040;-70
2022/08/26 09:55:43;;;;;;;11.73;2.20;;;21.40;99.90;;;;;;5093013;28;20395;-70
2022/08/26 09:58:33;;;;;;;12.23;2.03;;;21.40;99.90;;;;;;5093176;28;20082;-72
2022/08/26 10:01:03;;;;;;;11.67;2.23;;;21.40;99.90;;;;;;5084975;28;20091;-67
2022/08/26 10:03:32;;;;;;;11.00;1.80;;;21.40;99.90;;;;;;5092908;28;20078;-67
2022/08/26 10:06:06;;;;;;;11.97;2.40;;;21.30;99.90;;;;;;5092715;28;20044;-70
2022/08/26 10:08:36;;;;;;;7.63;2.05;;;21.30;99.90;;;;;;5093131;28;20043;-70
2022/08/26 10:11:09;;;;;;;7.73;1.77;;;21.40;99.90;;;;;;5092873;28;20048;-71
2022/08/26 10:13:42;;;;;;;5.07;1.52;;;21.40;99.90;;;;;;5092812;28;20417;-71
2022/08/26 10:16:22;;;;;;;9.40;2.23;;;21.40;99.90;;;;;;5093239;28;20052;-77
2022/08/26 10:19:05;;;;;;;8.73;1.93;;;21.50;99.90;;;;;;5092559;28;20491;-74
2022/08/26 10:21:54;;;;;;;7.40;2.13;;;21.50;99.90;;;;;;5092777;28;20106;-73
2022/08/26 10:24:26;;;;;;;7.30;1.77;;;21.40;99.90;;;;;;5093186;28;20403;-76
2022/08/26 10:27:06;;;;;;;9.53;2.13;;;21.40;99.90;;;;;;5092442;28;20051;-74
2022/08/26 10:29:44;;;;;;;7.27;1.73;;;21.40;99.90;;;;;;5093109;28;20048;-76
2022/08/26 10:32:26;;;;;;;10.57;2.27;;;21.40;99.90;;;;;;5092761;28;20040;-74
2022/08/26 10:34:52;;;;;;;12.33;2.67;;;21.40;99.90;;;;;;5092009;28;20412;-77
2022/08/26 10:37:21;;;;;;;13.30;2.10;;;21.40;99.90;;;;;;5092316;28;20044;-80
2022/08/26 10:40:25;;;;;;;11.93;2.20;;;21.30;99.90;;;;;;5092408;28;20400;-71
2022/08/26 10:43:02;;;;;;;11.23;2.37;;;21.20;99.90;;;;;;5092606;28;20040;-71
2022/08/26 10:45:31;;;;;;;7.97;1.70;;;21.10;99.90;;;;;;5092493;28;20399;-71
2022/08/26 10:48:06;;;;;;;12.13;2.53;;;21.10;99.90;;;;;;5092190;28;20394;-71
2022/08/26 10:50:36;;;;;;;9.93;2.35;;;21.10;99.90;;;;;;5091394;28;20066;-71
2022/08/26 10:53:10;;;;;;;9.67;2.30;;;21.10;99.90;;;;;;5092345;28;20047;-71
2022/08/26 10:56:04;;;;;;;11.20;2.40;;;21.00;99.90;;;;;;5092890;28;20450;-70
2022/08/26 10:58:45;;;;;;;9.27;2.03;;;21.00;99.90;;;;;;5092572;28;20059;-69
2022/08/26 11:04:30;;;;;;;9.43;2.20;;;20.90;99.90;;;;;;5086897;28;20487;-68
2022/08/26 11:07:29;;;;;;;8.73;2.00;;;20.90;99.90;;;;;;5090617;28;20040;-72
2022/08/26 11:09:59;;;;;;;11.73;2.37;;;20.90;99.90;;;;;;5058020;28;20087;-72
2022/08/26 11:12:53;;;;;;;9.53;1.70;;;20.90;99.90;;;;;;5089642;28;20055;-71
2022/08/26 11:15:19;;;;;;;12.10;2.67;;;20.90;99.90;;;;;;5085706;28;20051;-71
2022/08/26 11:17:45;;;;;;;12.73;2.70;;;20.80;99.90;;;;;;5094690;28;20109;-78
2022/08/26 11:20:32;;;;;;;10.77;2.43;;;20.70;99.90;;;;;;5096229;28;20396;-79
2022/08/26 11:23:22;;;;;;;9.70;2.60;;;20.60;99.90;;;;;;5095970;28;20434;-77
2022/08/26 11:26:08;;;;;;;8.60;1.87;;;20.60;99.90;;;;;;5095432;28;20066;-73
2022/08/26 11:28:44;;;;;;;11.00;2.33;;;20.60;99.90;;;;;;5095330;28;20040;-74
2022/08/26 11:31:25;;;;;;;7.93;2.03;;;20.60;99.90;;;;;;5095592;28;20046;-72
2022/08/26 11:33:58;;;;;;;9.43;2.27;;;20.70;99.90;;;;;;5094227;28;20503;-72
2022/08/26 11:36:36;;;;;;;10.93;2.50;;;20.70;99.90;;;;;;5095089;28;20047;-73
2022/08/26 11:39:29;;;;;;;5.57;1.50;;;20.70;99.90;;;;;;5093155;28;20090;-72
2022/08/26 11:42:18;;;;;;;7.30;1.83;;;20.70;99.90;;;;;;5094860;28;20097;-72
2022/08/26 11:44:45;;;;;;;9.27;1.83;;;20.70;99.90;;;;;;5093454;28;20043;-73
2022/08/26 11:47:16;;;;;;;9.27;2.43;;;20.70;99.90;;;;;;5094543;28;20065;-69
2022/08/26 11:49:42;;;;;;;8.70;1.73;;;20.80;99.90;;;;;;5095120;28;20038;-69
2022/08/26 11:52:19;;;;;;;7.97;2.03;;;20.80;99.90;;;;;;5091890;28;20489;-68
2022/08/26 11:55:09;;;;;;;8.00;1.80;;;20.80;99.90;;;;;;5094923;28;20032;-68
2022/08/26 11:57:43;;;;;;;5.63;1.60;;;20.90;99.90;;;;;;5093650;28;20044;-69
2022/08/26 12:00:16;;;;;;;12.43;2.35;;;20.80;99.90;;;;;;5092268;28;20054;-68
2022/08/26 12:02:42;;;;;;;6.27;2.00;;;20.70;99.90;;;;;;5094879;28;20047;-69
2022/08/26 12:05:08;;;;;;;9.27;2.00;;;20.70;99.90;;;;;;5094135;28;20122;-69
2022/08/26 12:07:34;;;;;;;8.33;2.00;;;20.60;99.90;;;;;;5094544;28;20055;-70
2022/08/26 12:10:02;;;;;;;14.93;2.17;;;20.60;99.90;;;;;;5093182;28;20048;-68
2022/08/26 12:12:31;;;;;;;13.80;2.30;;;20.70;99.90;;;;;;5092378;28;20072;-69
2022/08/26 12:15:16;;;;;;;9.27;2.40;;;20.70;99.90;;;;;;5094187;28;20127;-69
2022/08/26 12:17:44;;;;;;;7.50;1.63;;;20.80;99.90;;;;;;5094066;28;20111;-69
2022/08/26 12:20:46;;;;;;;11.03;2.23;;;20.90;99.90;;;;;;5093947;28;20518;-69
2022/08/26 12:23:26;;;;;;;10.80;2.30;;;20.90;99.90;;;;;;5092474;28;20130;-71
2022/08/26 12:26:12;;;;;;;8.37;2.03;;;21.00;99.90;;;;;;5092146;28;20075;-69
2022/08/26 12:28:48;;;;;;;10.37;2.10;;;21.00;99.90;;;;;;5093075;28;20118;-69
2022/08/26 12:31:21;;;;;;;13.33;2.20;;;21.00;99.90;;;;;;5082990;28;20400;-70
2022/08/26 12:33:48;;;;;;;10.67;2.10;;;21.00;99.90;;;;;;5091657;28;20369;-70
2022/08/26 12:36:34;;;;;;;7.70;1.83;;;20.90;99.90;;;;;;5093922;28;20051;-70
2022/08/26 12:39:14;;;;;;;11.00;2.20;;;20.90;99.90;;;;;;5092832;28;20050;-71
2022/08/26 12:41:45;;;;;;;9.77;2.20;;;20.80;99.90;;;;;;5093451;28;20118;-71
2022/08/26 12:44:56;;;;;;;8.73;2.00;;;20.80;99.90;;;;;;5092187;28;20044;-75
2022/08/26 12:47:32;;;;;;;8.93;1.97;;;20.90;99.90;;;;;;5094346;28;20487;-71
2022/08/26 12:50:09;;;;;;;8.07;1.50;;;20.90;99.90;;;;;;5093322;28;20052;-72
2022/08/26 12:53:02;;;;;;;7.47;1.87;;;20.80;99.90;;;;;;5094173;28;20048;-72
2022/08/26 12:55:51;;;;;;;9.73;2.23;;;20.80;99.90;;;;;;5094412;28;20051;-74
2022/08/26 12:58:17;;;;;;;8.40;1.70;;;20.80;99.90;;;;;;5092385;28;20568;-76
2022/08/26 13:00:48;;;;;;;9.50;2.20;;;20.80;99.90;;;;;;5093962;28;20048;-78
2022/08/26 13:03:42;;;;;;;8.97;2.13;;;20.80;99.90;;;;;;5094007;28;20040;-78